.
WxDataArchive / Data Records for 2014-07-08
2014-07-07 July 2014 2014-07-09

Data Records for Tuesday, 08 July 2014

Time	Temp	Chill	HIndex	Humid	Dewpt	 Wind 	HiWind	WindDir	Rain 	Barom
-----	----	-----	------	-----	-----	------	------	-------	-----	-----
00:00	72.0	72.0	72.0	93	69.9	0	0	---	0.00	29.736 
00:05	72.0	72.0	72.0	93	69.9	0	0	---	0.00	29.736 
00:10	72.0	72.0	72.0	93	69.9	0	0	---	0.00	29.736 
00:15	72.0	72.0	72.0	93	69.9	0	0	---	0.00	29.726 
00:20	72.0	72.0	72.0	93	69.9	0	1	270	0.00	29.726 
00:25	72.0	72.0	72.0	93	69.9	0	2	270	0.00	29.726 
00:30	71.8	71.8	71.8	93	69.7	0	0	---	0.00	29.723 
00:35	71.8	71.8	71.8	93	69.7	0	0	---	0.00	29.723 
00:40	71.8	71.8	71.8	94	70.0	0	1	270	0.00	29.723 
00:45	71.8	71.8	71.8	94	70.0	0	0	---	0.00	29.729 
00:50	72.0	72.0	72.0	94	70.2	0	1	270	0.00	29.729 
00:55	72.1	72.1	72.1	94	70.3	0	1	270	0.00	29.729 
01:00	72.3	72.3	72.3	94	70.5	0	1	270	0.00	29.727 
01:05	72.5	72.5	72.5	94	70.7	0	1	270	0.00	29.727 
01:10	72.5	72.5	72.5	94	70.7	0	2	270	0.00	29.727 
01:15	72.7	72.7	72.7	94	70.9	0	1	270	0.00	29.711 
01:20	72.5	72.5	72.5	94	70.7	0	1	270	0.00	29.711 
01:25	72.5	72.5	72.5	94	70.7	0	1	270	0.00	29.711 
01:30	72.5	72.5	72.5	94	70.7	0	2	270	0.00	29.697 
01:35	72.5	72.5	72.5	94	70.7	0	1	270	0.00	29.697 
01:40	72.5	72.5	72.5	93	70.4	0	1	270	0.00	29.697 
01:45	72.3	72.3	72.3	93	70.2	0	2	270	0.00	29.692 
01:50	72.3	72.3	72.3	93	70.2	0	4	270	0.00	29.692 
01:55	72.1	72.1	72.1	93	70.0	0	3	270	0.00	29.692 
02:00	72.1	72.1	72.1	93	70.0	0	1	270	0.00	29.670 
02:05	72.0	72.0	72.0	93	69.9	0	1	270	0.00	29.670 
02:10	71.8	71.8	71.8	93	69.7	0	0	---	0.00	29.670 
02:15	71.6	71.6	71.6	93	69.5	0	1	270	0.00	29.647 
02:20	71.6	71.6	71.6	93	69.5	0	2	270	0.00	29.647 
02:25	71.5	71.5	71.5	93	69.4	0	1	270	0.00	29.647 
02:30	71.3	71.3	71.3	93	69.2	0	1	270	0.00	29.648 
02:35	71.1	71.1	71.1	93	69.0	0	1	270	0.00	29.648 
02:40	71.1	71.1	71.1	93	69.0	0	2	270	0.00	29.648 
02:45	71.1	71.1	71.1	93	69.0	0	1	270	0.00	29.662 
02:50	71.1	71.1	71.1	93	69.0	0	1	270	0.00	29.662 
02:55	71.1	71.1	71.1	93	69.0	0	1	270	0.00	29.662 
03:00	71.1	71.1	71.1	93	69.0	0	2	270	0.00	29.649 
03:05	71.1	71.1	71.1	93	69.0	0	2	270	0.00	29.649 
03:10	71.1	71.1	71.1	93	69.0	0	1	270	0.00	29.649 
03:15	71.1	71.1	71.1	93	69.0	0	1	270	0.00	29.653 
03:20	70.9	70.9	70.9	93	68.8	0	0	---	0.00	29.653 
03:25	70.9	70.9	70.9	93	68.8	0	1	270	0.00	29.653 
03:30	70.9	70.9	70.9	93	68.8	0	4	270	0.00	29.648 
03:35	70.9	70.9	70.9	93	68.8	0	2	270	0.00	29.648 
03:40	70.9	70.9	70.9	93	68.8	0	3	270	0.00	29.648 
03:45	70.9	70.9	70.9	93	68.8	0	2	270	0.00	29.662 
03:50	70.9	70.9	70.9	93	68.8	0	2	270	0.00	29.662 
03:55	70.9	70.9	70.9	93	68.8	0	2	270	0.00	29.662 
04:00	70.9	70.9	70.9	93	68.8	0	2	270	0.00	29.655 
04:05	70.9	70.9	70.9	93	68.8	0	1	270	0.00	29.655 
04:10	70.9	70.9	70.9	94	69.1	0	1	270	0.00	29.655 
04:15	70.9	70.9	70.9	94	69.1	0	1	270	0.00	29.648 
04:20	71.1	71.1	71.1	94	69.3	0	1	270	0.00	29.648 
04:25	71.1	71.1	71.1	94	69.3	0	2	270	0.00	29.648 
04:30	71.1	71.1	71.1	94	69.3	0	2	270	0.00	29.642 
04:35	70.9	70.9	70.9	94	69.1	0	1	270	0.00	29.642 
04:40	70.9	70.9	70.9	94	69.1	0	2	270	0.00	29.642 
04:45	70.9	70.9	70.9	94	69.1	0	2	270	0.00	29.640 
04:50	70.9	70.9	70.9	94	69.1	0	2	270	0.00	29.640 
04:55	70.9	70.9	70.9	94	69.1	0	2	270	0.00	29.640 
05:00	70.9	70.9	70.9	94	69.1	0	2	270	0.00	29.629 
05:05	70.9	70.9	70.9	94	69.1	0	2	270	0.00	29.629 
05:10	70.9	70.9	70.9	94	69.1	0	1	270	0.00	29.629 
05:15	70.9	70.9	70.9	94	69.1	0	1	270	0.00	29.626 
05:20	70.9	70.9	70.9	94	69.1	0	1	270	0.00	29.626 
05:25	70.9	70.9	70.9	94	69.1	0	2	270	0.00	29.626 
05:30	70.9	70.9	70.9	94	69.1	1	5	270	0.00	29.618 
05:35	70.9	70.9	70.9	94	69.1	0	3	270	0.00	29.618 
05:40	70.9	70.9	70.9	94	69.1	0	4	270	0.00	29.618 
05:45	70.9	70.9	70.9	94	69.1	0	2	270	0.00	29.611 
05:50	71.1	71.1	71.1	94	69.3	0	2	270	0.00	29.611 
05:55	71.1	71.1	71.1	94	69.3	0	1	270	0.00	29.611 
06:00	71.1	71.1	71.1	94	69.3	0	3	270	0.00	29.608 
06:05	71.1	71.1	71.1	94	69.3	0	1	270	0.00	29.608 
06:10	71.1	71.1	71.1	94	69.3	0	1	270	0.00	29.608 
06:15	71.1	71.1	71.1	94	69.3	0	3	270	0.00	29.617 
06:20	71.1	71.1	71.1	94	69.3	0	2	270	0.00	29.617 
06:25	71.1	71.1	71.1	93	69.0	0	2	270	0.00	29.617 
06:30	71.1	71.1	71.1	93	69.0	0	2	270	0.00	29.616 
06:35	71.1	71.1	71.1	93	69.0	0	2	270	0.00	29.616 
06:40	71.1	71.1	71.1	93	69.0	0	0	---	0.00	29.616 
06:45	71.1	71.1	71.1	93	69.0	0	2	270	0.00	29.603 
06:50	71.1	71.1	71.1	93	69.0	0	1	270	0.00	29.603 
06:55	71.1	71.1	71.1	93	69.0	0	0	---	0.00	29.603 
07:00	71.1	71.1	71.1	93	69.0	0	1	270	0.00	29.604 
07:05	71.1	71.1	71.1	92	68.7	0	1	270	0.00	29.604 
07:10	70.9	70.9	70.9	92	68.5	0	1	270	0.00	29.604 
07:15	70.9	70.9	70.9	92	68.5	0	2	270	0.00	29.608 
07:20	70.9	70.9	70.9	92	68.5	0	4	248	0.00	29.608 
07:25	70.9	70.9	70.9	92	68.5	0	4	248	0.00	29.608 
07:30	70.9	70.9	70.9	92	68.5	0	2	248	0.00	29.614 
07:35	71.1	71.1	71.1	92	68.7	0	2	248	0.00	29.614 
07:40	71.1	71.1	71.1	92	68.7	0	3	248	0.00	29.614 
07:45	71.3	71.3	71.3	92	68.8	0	2	248	0.00	29.610 
07:50	71.3	71.3	71.3	92	68.8	0	2	248	0.00	29.610 
07:55	71.3	71.3	71.3	92	68.8	1	3	248	0.01	29.610 
08:00	71.3	71.3	71.3	92	68.8	1	4	270	0.01	29.609 
08:05	71.3	71.3	71.3	92	68.8	1	4	292	0.01	29.609 
08:10	71.3	71.3	71.3	92	68.8	1	3	292	0.01	29.609 
08:15	71.3	71.3	71.3	93	69.2	1	3	292	0.01	29.615 
08:20	71.3	71.3	71.3	93	69.2	0	3	292	0.01	29.615 
08:25	71.1	71.1	71.1	93	69.0	0	2	292	0.01	29.615 
08:30	71.1	71.1	71.1	93	69.0	0	1	338	0.00	29.610 
08:35	71.1	71.1	71.1	93	69.0	0	3	292	0.00	29.610 
08:40	71.1	71.1	71.1	93	69.0	0	1	292	0.01	29.610 
08:45	70.9	70.9	70.9	93	68.8	0	2	292	0.00	29.611 
08:50	70.8	70.8	70.8	93	68.7	0	2	292	0.00	29.611 
08:55	70.6	70.6	70.6	93	68.5	0	2	315	0.00	29.611 
09:00	70.4	70.4	70.4	93	68.3	0	1	315	0.00	29.606 
09:05	70.3	70.3	70.3	93	68.2	0	1	315	0.01	29.606 
09:10	70.1	70.1	70.1	93	68.0	0	0	---	0.00	29.606 
09:15	70.1	70.1	70.1	94	68.3	0	0	---	0.00	29.592 
09:20	69.9	69.9	69.9	94	68.1	0	0	---	0.00	29.592 
09:25	69.9	69.9	69.9	94	68.1	0	0	---	0.00	29.592 
09:30	69.9	69.9	69.9	94	68.1	0	0	---	0.00	29.603 
09:35	69.9	69.9	69.9	94	68.1	0	1	315	0.01	29.603 
09:40	69.9	69.9	69.9	94	68.1	1	3	315	0.01	29.603 
09:45	69.9	69.9	69.9	94	68.1	1	3	315	0.01	29.635 
09:50	69.8	69.8	69.8	94	68.0	0	1	315	0.01	29.635 
09:55	69.6	69.6	69.6	94	67.8	2	5	270	0.00	29.635 
10:00	69.1	69.1	69.1	93	67.0	3	10	270	0.00	29.640 
10:05	68.3	68.3	68.3	92	65.9	4	10	270	0.01	29.640 
10:10	67.9	67.9	67.9	93	65.8	2	6	270	0.00	29.640 
10:15	67.8	67.8	67.8	92	65.4	2	9	270	0.01	29.642 
10:20	67.8	67.8	67.8	93	65.7	1	5	270	0.01	29.642 
10:25	67.6	67.6	67.6	92	65.2	3	6	270	0.00	29.642 
10:30	67.6	67.6	67.6	93	65.5	1	4	270	0.00	29.640 
10:35	67.8	67.8	67.8	93	65.7	0	3	270	0.00	29.640 
10:40	67.8	67.8	67.8	93	65.7	1	3	270	0.00	29.640 
10:45	67.8	67.8	67.8	93	65.7	1	4	270	0.00	29.625 
10:50	68.1	68.1	68.1	93	66.0	1	3	270	0.00	29.625 
10:55	68.3	68.3	68.3	93	66.2	0	2	270	0.00	29.625 
11:00	68.4	68.4	68.4	93	66.3	1	3	270	0.00	29.621 
11:05	68.4	68.4	68.4	92	66.0	0	2	270	0.00	29.621 
11:10	68.6	68.6	68.6	92	66.2	0	2	270	0.00	29.621 
11:15	68.8	68.8	68.8	92	66.4	1	4	270	0.00	29.623 
11:20	68.9	68.9	68.9	92	66.5	1	3	270	0.01	29.623 
11:25	69.1	69.1	69.1	92	66.7	1	4	270	0.00	29.623 
11:30	69.1	69.1	69.1	91	66.4	1	3	270	0.00	29.631 
11:35	68.9	68.9	68.9	90	65.8	1	4	270	0.00	29.631 
11:40	69.1	69.1	69.1	91	66.4	1	5	270	0.00	29.631 
11:45	69.4	69.4	69.4	91	66.7	1	4	270	0.00	29.638 
11:50	69.9	69.9	69.9	90	66.8	1	4	270	0.00	29.638 
11:55	70.4	70.4	70.4	90	67.3	1	4	270	0.00	29.638 
12:00	70.8	70.8	70.8	89	67.4	1	4	270	0.00	29.640 
12:05	71.1	71.1	71.1	88	67.4	1	4	270	0.00	29.640 
12:10	71.1	71.1	71.1	88	67.4	2	5	270	0.00	29.640 
12:15	71.3	71.3	71.3	87	67.2	1	5	270	0.00	29.651 
12:20	71.6	71.6	71.6	87	67.5	2	6	270	0.00	29.651 
12:25	71.8	71.8	71.8	86	67.4	2	5	270	0.00	29.651 
12:30	71.8	71.8	71.8	86	67.4	2	6	270	0.00	29.648 
12:35	72.3	72.3	72.3	84	67.2	3	9	270	0.00	29.648 
12:40	73.2	73.2	73.2	83	67.7	2	6	292	0.00	29.648 
12:45	74.0	74.0	74.0	82	68.1	2	6	270	0.00	29.647 
12:50	74.7	74.7	74.7	79	67.7	3	7	270	0.00	29.647 
12:55	75.1	75.1	76.1	77	67.4	3	6	270	0.00	29.647 
13:00	75.3	75.3	76.4	76	67.2	2	6	270	0.00	29.648 
13:05	75.6	75.6	77.0	74	66.7	2	6	270	0.00	29.648 
13:10	75.8	75.8	77.3	73	66.5	2	5	270	0.00	29.648 
13:15	76.1	76.1	77.6	73	66.8	2	5	270	0.00	29.648 
13:20	76.5	76.5	78.1	72	66.8	3	7	270	0.00	29.648 
13:25	77.0	77.0	78.7	74	68.1	1	4	270	0.00	29.648 
13:30	77.7	77.7	79.7	72	67.9	2	5	270	0.00	29.644 
13:35	78.3	78.3	80.4	69	67.3	2	6	270	0.00	29.644 
13:40	78.5	78.5	80.5	67	66.6	2	5	270	0.00	29.644 
13:45	78.6	78.6	80.6	66	66.3	3	7	270	0.00	29.647 
13:50	78.5	78.5	80.5	66	66.2	4	7	270	0.00	29.647 
13:55	78.6	78.6	80.7	68	67.1	2	6	270	0.00	29.647 
14:00	78.8	78.8	80.7	64	65.6	2	9	270	0.00	29.649 
14:05	78.8	78.8	80.7	64	65.6	4	10	270	0.00	29.649 
14:10	78.6	78.6	80.4	62	64.5	5	11	270	0.00	29.649 
14:15	78.8	78.8	80.5	61	64.2	5	11	270	0.00	29.662 
14:20	78.8	78.8	80.3	58	62.8	5	10	270	0.00	29.662 
14:25	79.2	79.2	80.7	58	63.1	4	11	292	0.00	29.662 
14:30	79.6	79.6	81.1	57	63.0	4	7	270	0.00	29.665 
14:35	79.4	79.4	80.7	55	61.8	5	12	270	0.00	29.665 
14:40	79.2	79.2	80.7	57	62.6	5	12	292	0.00	29.665 
14:45	79.4	79.4	80.6	54	61.3	5	9	270	0.00	29.668 
14:50	79.6	79.6	80.9	55	62.0	3	5	270	0.00	29.668 
14:55	79.4	79.4	80.6	54	61.3	4	8	292	0.00	29.668 
15:00	79.2	79.2	80.5	55	61.6	4	7	292	0.00	29.676 
15:05	79.8	79.8	81.0	54	61.7	3	9	292	0.00	29.676 
15:10	79.8	79.8	80.7	51	60.0	4	9	292	0.00	29.676 
15:15	80.1	80.1	80.9	50	59.8	3	5	270	0.00	29.671 
15:20	80.5	80.5	81.2	49	59.6	4	9	270	0.00	29.671 
15:25	80.3	80.3	81.1	50	59.9	3	9	270	0.00	29.671 
15:30	80.1	80.1	80.6	47	58.0	4	9	270	0.00	29.679 
15:35	80.1	80.1	80.6	47	58.0	5	11	270	0.00	29.679 
15:40	80.3	80.3	80.9	48	58.8	4	7	270	0.00	29.679 
15:45	80.1	80.1	80.6	47	58.0	4	10	270	0.00	29.680 
15:50	79.9	79.9	80.5	48	58.4	3	9	270	0.00	29.680 
15:55	80.3	80.3	80.8	47	58.2	4	6	270	0.00	29.680 
16:00	80.7	80.7	81.2	48	59.2	3	7	270	0.00	29.686 
16:05	80.3	80.3	80.9	48	58.8	3	7	270	0.00	29.686 
16:10	79.9	79.9	80.5	48	58.4	4	10	292	0.00	29.686 
16:15	79.9	79.9	80.4	47	57.8	4	9	292	0.00	29.694 
16:20	79.8	79.8	80.5	48	58.3	3	9	292	0.00	29.694 
16:25	80.1	80.1	80.9	50	59.8	3	5	270	0.00	29.694 
16:30	80.5	80.5	81.0	48	59.0	3	6	270	0.00	29.689 
16:35	80.1	80.1	80.7	48	58.6	4	6	292	0.00	29.689 
16:40	79.6	79.6	80.4	49	58.7	3	10	292	0.00	29.689 
16:45	79.9	79.9	80.6	49	59.0	3	7	270	0.00	29.694 
16:50	80.3	80.3	80.7	46	57.6	3	6	315	0.00	29.694 
16:55	80.3	80.3	80.8	47	58.2	4	12	292	0.00	29.694 
17:00	80.7	80.7	81.1	47	58.6	2	6	292	0.00	29.692 
17:05	80.9	80.9	81.4	48	59.3	3	6	315	0.00	29.692 
17:10	81.1	81.1	81.6	48	59.5	2	5	292	0.00	29.692 
17:15	81.1	81.1	81.3	45	57.7	3	8	292	0.00	29.694 
17:20	81.1	81.1	81.5	47	58.9	2	6	270	0.00	29.694 
17:25	81.2	81.2	81.5	46	58.4	3	6	292	0.00	29.694 
17:30	80.9	80.9	81.2	46	58.2	3	7	292	0.00	29.698 
17:35	80.9	80.9	81.2	46	58.2	3	7	292	0.00	29.698 
17:40	80.9	80.9	81.3	47	58.8	3	6	270	0.00	29.698 
17:45	80.9	80.9	81.3	47	58.8	3	5	270	0.00	29.703 
17:50	80.9	80.9	81.4	48	59.3	3	6	270	0.00	29.703 
17:55	80.7	80.7	81.3	49	59.7	3	7	270	0.00	29.703 
18:00	80.5	80.5	81.0	48	59.0	3	7	270	0.00	29.698 
18:05	80.3	80.3	80.9	48	58.8	3	5	270	0.00	29.698 
18:10	80.1	80.1	80.7	48	58.6	3	9	270	0.00	29.698 
18:15	80.1	80.1	80.7	48	58.6	4	7	270	0.00	29.698 
18:20	80.1	80.1	80.7	48	58.6	4	6	270	0.00	29.698 
18:25	79.6	79.6	80.2	47	57.6	2	6	270	0.00	29.698 
18:30	79.6	79.6	80.4	49	58.7	3	7	270	0.00	29.703 
18:35	79.8	79.8	80.5	48	58.3	3	10	270	0.00	29.703 
18:40	79.6	79.6	80.2	47	57.6	2	6	270	0.00	29.703 
18:45	79.2	79.2	80.0	48	57.8	3	7	270	0.00	29.709 
18:50	78.8	78.8	79.7	48	57.4	2	5	270	0.00	29.709 
18:55	78.5	78.5	79.6	50	58.3	3	5	270	0.00	29.709 
19:00	78.3	78.3	79.5	51	58.7	1	4	270	0.00	29.712 
19:05	78.5	78.5	79.6	51	58.8	2	5	270	0.00	29.712 
19:10	78.8	78.8	79.9	52	59.7	3	6	270	0.00	29.712 
19:15	79.0	79.0	80.0	51	59.3	2	4	315	0.00	29.710 
19:20	79.0	79.0	80.2	53	60.4	2	4	315	0.00	29.710 
19:25	78.6	78.6	79.7	51	58.9	2	4	292	0.00	29.710 
19:30	78.3	78.3	79.5	51	58.7	2	6	270	0.00	29.713 
19:35	78.3	78.3	79.6	53	59.7	1	4	270	0.00	29.713 
19:40	78.1	78.1	79.5	53	59.6	2	6	270	0.00	29.713 
19:45	77.6	77.6	79.1	54	59.6	1	3	270	0.00	29.714 
19:50	77.4	77.4	79.0	54	59.4	1	3	270	0.00	29.714 
19:55	77.2	77.2	78.9	55	59.8	1	3	270	0.00	29.714 
20:00	77.0	77.0	78.7	55	59.6	1	3	270	0.00	29.719 
20:05	76.8	76.8	78.6	55	59.4	1	3	270	0.00	29.719 
20:10	76.8	76.8	78.6	56	59.9	1	4	270	0.00	29.719 
20:15	76.7	76.7	78.5	56	59.8	1	3	270	0.00	29.724 
20:20	76.7	76.7	78.5	57	60.3	0	1	270	0.00	29.724 
20:25	76.5	76.5	78.4	57	60.1	0	1	270	0.00	29.724 
20:30	76.5	76.5	78.4	57	60.1	0	1	270	0.00	29.727 
20:35	76.3	76.3	78.3	57	59.9	0	2	270	0.00	29.727 
20:40	76.3	76.3	78.3	57	59.9	1	3	270	0.00	29.727 
20:45	76.1	76.1	78.1	58	60.2	2	5	270	0.00	29.731 
20:50	76.0	76.0	78.0	58	60.1	2	4	270	0.00	29.731 
20:55	75.8	75.8	77.9	58	59.9	1	3	270	0.00	29.731 
21:00	75.8	75.8	77.9	58	59.9	1	4	270	0.00	29.734 
21:05	75.6	75.6	77.8	59	60.2	0	2	270	0.00	29.734 
21:10	75.3	75.3	77.6	59	60.0	1	3	270	0.00	29.734 
21:15	75.1	75.1	77.5	59	59.8	0	1	270	0.00	29.739 
21:20	74.9	74.9	74.9	60	60.1	0	1	270	0.00	29.739 
21:25	74.7	74.7	74.7	60	59.9	0	1	270	0.00	29.739 
21:30	74.6	74.6	74.6	60	59.8	0	1	270	0.00	29.745 
21:35	74.4	74.4	74.4	61	60.1	0	1	270	0.00	29.745 
21:40	74.2	74.2	74.2	61	59.9	0	1	270	0.00	29.745 
21:45	74.2	74.2	74.2	61	59.9	0	2	270	0.00	29.749 
21:50	74.0	74.0	74.0	61	59.7	0	1	270	0.00	29.749 
21:55	74.0	74.0	74.0	60	59.2	1	3	270	0.00	29.749 
22:00	74.0	74.0	74.0	60	59.2	0	2	270	0.00	29.756 
22:05	74.0	74.0	74.0	61	59.7	0	1	270	0.00	29.756 
22:10	73.7	73.7	73.7	62	59.9	0	2	270	0.00	29.756 
22:15	73.5	73.5	73.5	62	59.7	0	2	270	0.00	29.764 
22:20	73.5	73.5	73.5	62	59.7	0	2	270	0.00	29.764 
22:25	73.5	73.5	73.5	62	59.7	0	1	270	0.00	29.764 
22:30	73.3	73.3	73.3	62	59.5	0	1	270	0.00	29.768 
22:35	73.3	73.3	73.3	62	59.5	0	2	270	0.00	29.768 
22:40	73.3	73.3	73.3	62	59.5	0	3	270	0.00	29.768 
22:45	73.3	73.3	73.3	63	59.9	0	1	270	0.00	29.769 
22:50	73.2	73.2	73.2	63	59.8	0	1	270	0.00	29.769 
22:55	73.0	73.0	73.0	63	59.6	0	1	270	0.00	29.769 
23:00	73.2	73.2	73.2	62	59.4	0	3	270	0.00	29.772 
23:05	73.2	73.2	73.2	62	59.4	1	3	270	0.00	29.772 
23:10	73.2	73.2	73.2	62	59.4	0	2	270	0.00	29.772 
23:15	73.0	73.0	73.0	62	59.2	0	1	270	0.00	29.766 
23:20	73.0	73.0	73.0	62	59.2	1	4	270	0.00	29.766 
23:25	73.0	73.0	73.0	62	59.2	1	3	270	0.00	29.766 
23:30	73.0	73.0	73.0	62	59.2	0	2	270	0.00	29.769 
23:35	72.8	72.8	72.8	63	59.5	0	2	270	0.00	29.769 
23:40	72.8	72.8	72.8	63	59.5	0	2	338	0.00	29.769 
23:45	72.7	72.7	72.7	63	59.4	0	3	338	0.00	29.775 
23:50	72.7	72.7	72.7	64	59.8	2	4	338	0.00	29.775 
23:55	72.3	72.3	72.3	66	60.3	1	3	338	0.00	29.775 

CoCoRaHS
IN-AL-39
A2 Web Hosting
Creative Commons License
GoDaddy
search engine by freefind advanced

loaded 2018-11-15 06:18:24 • last modified 2010-11-18 10:43:29
Privacy PolicyDisclaimer
• wx.awcolley.com is powered by PmWiki v.2002016 •
• all content (unless otherwise noted) © 2018 A W Colley